Ellendale, Tennessee
Current Conditions -  °F | °C
As of 10:50 PM on Friday 31 Oct 2014 (Local Time) from KNQA Reporting Station
Clear Clear  
Wind Chill: 36°   Ceiling: Unl
Heat Index: 41°   Visibility: 10mi
Dew Point: 25°   Wind: 7mph
Humidity: 53%   Direction: 360°N
Pressure: 30.33"   Gusts: NA
Location:  35.23°N, 89.83°W
Report Text: KNQA 010350Z 36006KT 10SM SKC 05/M04 A3033
Loading
Personal Weather Stations






























Interactive Weather Map New forecast layout! Learn more

10-Day Weather Forecast

Advertisements
Track Severe Weather on mobile